Time;durP1;ratioP1;P1;durP2;ratioP2;P2;SDS_P1;SDS_P2;PMS_P1;PMS_P2;Temp;Humidity;BMP_temperature;BMP_pressure;BME280_temperature;BME280_humidity;BME280_pressure;Samples;Min_cycle;Max_cycle;Signal;HPM_P1;HPM_P2
2021/12/15 00:01:27;;;;;;;;;40.00;34.75;;;;;9.71;72.17;102821.53;4999106;28;45314;-70
2021/12/15 00:03:54;;;;;;;;;48.00;37.25;;;;;9.72;71.89;102820.69;4999553;28;45203;-69
2021/12/15 00:06:20;;;;;;;;;50.75;38.00;;;;;9.73;72.13;102817.25;4997859;28;46080;-70
2021/12/15 00:08:50;;;;;;;;;47.50;37.00;;;;;9.67;71.87;102806.34;4998803;28;45274;-70
2021/12/15 00:11:16;;;;;;;;;50.50;37.50;;;;;9.74;71.54;102819.06;4999682;28;45301;-70
2021/12/15 00:13:43;;;;;;;;;46.25;37.50;;;;;9.72;71.52;102818.06;4991656;28;46412;-70
2021/12/15 00:16:09;;;;;;;;;49.50;37.50;;;;;9.65;71.69;102800.94;4998111;28;48321;-70
2021/12/15 00:18:35;;;;;;;;;44.25;37.00;;;;;9.62;71.79;102799.03;4993313;28;45448;-70
2021/12/15 00:21:03;;;;;;;;;47.25;38.75;;;;;9.76;72.37;102825.38;4999503;28;45313;-70
2021/12/15 00:23:30;;;;;;;;;40.00;34.00;;;;;9.62;71.72;102809.59;4998214;28;44766;-71
2021/12/15 00:25:55;;;;;;;;;44.25;34.25;;;;;9.72;71.74;102823.34;4999232;28;46393;-69
2021/12/15 00:28:21;;;;;;;;;51.25;38.00;;;;;9.70;71.38;102822.38;4998545;28;45287;-69
2021/12/15 00:30:46;;;;;;;;;34.50;31.25;;;;;9.69;71.17;102823.16;4999448;28;45363;-69
2021/12/15 00:33:11;;;;;;;;;41.50;35.75;;;;;9.60;71.21;102799.75;4998651;28;45159;-69
2021/12/15 00:35:37;;;;;;;;;40.50;32.25;;;;;9.67;71.85;102812.53;4998866;28;45417;-71
2021/12/15 00:38:04;;;;;;;;;40.50;34.75;;;;;9.74;71.94;102816.44;4998135;28;45839;-71
2021/12/15 00:40:30;;;;;;;;;34.50;32.00;;;;;9.66;71.83;102807.13;4999301;28;45364;-70
2021/12/15 00:42:56;;;;;;;;;42.25;34.75;;;;;9.68;71.73;102809.06;4998416;28;45377;-71
2021/12/15 00:45:23;;;;;;;;;38.00;33.25;;;;;9.72;71.64;102818.06;4998982;28;46503;-71
2021/12/15 00:47:49;;;;;;;;;41.75;32.75;;;;;9.75;71.20;102819.19;4991034;28;45319;-71
2021/12/15 00:50:17;;;;;;;;;38.00;34.50;;;;;9.61;71.49;102794.59;4999116;28;45361;-71
2021/12/15 00:52:45;;;;;;;;;37.00;34.00;;;;;9.75;71.61;102818.28;4997873;28;45329;-71
2021/12/15 00:55:14;;;;;;;;;39.75;33.25;;;;;9.60;70.69;102800.66;5000326;28;46697;-71
2021/12/15 00:57:39;;;;;;;;;38.25;31.50;;;;;9.65;71.59;102816.78;5001695;28;45412;-71
2021/12/15 01:00:12;;;;;;;;;40.00;33.00;;;;;9.63;71.51;102816.72;5001177;28;45357;-71
2021/12/15 01:02:38;;;;;;;;;35.75;30.25;;;;;9.59;71.57;102808.50;5001705;28;45337;-71
2021/12/15 01:05:07;;;;;;;;;35.25;30.50;;;;;9.66;71.60;102815.06;5002029;28;46207;-71
2021/12/15 01:07:33;;;;;;;;;43.50;34.25;;;;;9.53;71.31;102801.13;5001033;28;45530;-71
2021/12/15 01:09:59;;;;;;;;;32.50;31.00;;;;;9.64;71.70;102817.63;5002332;28;45200;-71
2021/12/15 01:20:42;;;;;;;;;37.75;30.50;;;;;9.59;71.34;102790.94;5002186;28;45359;-71
2021/12/15 01:23:13;;;;;;;;;35.50;32.25;;;;;9.58;71.58;102794.41;5000780;28;45439;-71
2021/12/15 01:25:42;;;;;;;;;36.75;30.00;;;;;9.66;71.73;102818.59;5001869;28;45415;-71
2021/12/15 01:28:08;;;;;;;;;42.00;34.25;;;;;9.64;71.73;102818.53;5001138;28;45258;-71
2021/12/15 01:30:41;;;;;;;;;42.25;36.00;;;;;9.44;71.95;102773.25;5002042;28;45418;-71
2021/12/15 01:33:08;;;;;;;;;39.00;34.50;;;;;9.65;72.40;102814.16;5001079;28;45448;-70
2021/12/15 01:35:35;;;;;;;;;41.50;33.75;;;;;9.68;71.98;102809.06;5001524;28;45396;-71
2021/12/15 01:38:00;;;;;;;;;37.50;33.75;;;;;9.67;71.37;102807.25;5000482;28;45444;-71
2021/12/15 01:40:35;;;;;;;;;34.25;29.25;;;;;9.62;71.49;102799.03;5001746;28;44694;-71
2021/12/15 01:43:05;;;;;;;;;42.50;37.25;;;;;9.69;71.66;102815.25;5001350;28;45285;-71
2021/12/15 01:48:15;;;;;;;;;48.75;37.75;;;;;9.68;72.35;102816.06;5000948;28;45224;-71
2021/12/15 01:50:42;;;;;;;;;45.00;37.25;;;;;9.66;72.58;102818.59;5001548;28;45339;-71
2021/12/15 01:53:08;;;;;;;;;41.75;38.00;;;;;9.56;72.13;102803.94;5000518;28;45457;-71
2021/12/15 01:55:34;;;;;;;;;37.00;34.00;;;;;9.60;72.07;102808.59;5001170;28;45315;-71
2021/12/15 01:58:00;;;;;;;;;40.75;35.75;;;;;9.64;72.08;102823.81;5000603;28;45329;-71
2021/12/15 02:00:36;;;;;;;;;42.75;37.25;;;;;9.67;72.59;102824.81;5000258;28;45454;-71
2021/12/15 02:03:01;;;;;;;;;46.25;38.00;;;;;9.61;72.11;102820.09;5000797;28;45253;-71
2021/12/15 02:05:29;;;;;;;;;44.50;34.00;;;;;9.50;72.35;102797.41;5000743;28;45280;-71
2021/12/15 02:07:54;;;;;;;;;38.75;34.50;;;;;9.59;72.79;102817.34;4999419;28;45416;-71
2021/12/15 02:10:23;;;;;;;;;40.50;36.50;;;;;9.58;72.43;102818.16;5001456;28;45236;-71
2021/12/15 02:12:49;;;;;;;;;45.25;36.00;;;;;9.61;71.08;102821.00;5000556;28;45504;-71
2021/12/15 02:15:20;;;;;;;;;39.50;33.50;;;;;9.64;71.65;102842.28;5000965;28;46044;-71
2021/12/15 02:17:46;;;;;;;;;39.25;36.25;;;;;9.58;72.31;102827.81;5000556;28;45364;-71
2021/12/15 02:20:15;;;;;;;;;39.00;33.25;;;;;9.69;71.96;102849.56;5001320;28;45452;-71
2021/12/15 02:22:42;;;;;;;;;46.75;34.00;;;;;9.67;71.88;102846.84;4992921;28;47026;-71
2021/12/15 02:25:11;;;;;;;;;44.50;36.25;;;;;9.65;72.28;102835.28;4999673;28;48343;-71
2021/12/15 02:27:38;;;;;;;;;47.75;36.50;;;;;9.68;72.39;102856.59;4999526;28;45482;-70
2021/12/15 02:30:20;;;;;;;;;43.50;35.25;;;;;9.66;72.04;102852.94;5016313;28;45462;-71
2021/12/15 02:33:12;;;;;;;;;40.25;34.25;;;;;9.53;72.65;102830.16;5000155;28;45310;-71
2021/12/15 02:38:30;;;;;;;;;44.25;33.00;;;;;9.64;72.01;102829.09;4999672;28;45480;-71
2021/12/15 02:41:04;;;;;;;;;42.00;34.75;;;;;9.71;72.03;102842.66;5014675;28;45444;-71
2021/12/15 02:43:30;;;;;;;;;41.00;33.00;;;;;9.70;72.34;102838.22;4996342;28;47401;-71
2021/12/15 02:45:56;;;;;;;;;32.50;30.75;;;;;9.69;71.80;102842.59;5000638;28;45566;-71
2021/12/15 02:48:21;;;;;;;;;33.00;26.50;;;;;9.57;72.78;102820.69;5000075;28;45298;-71
2021/12/15 02:50:47;;;;;;;;;35.00;33.75;;;;;9.60;72.84;102823.53;5000761;28;45254;-71
2021/12/15 02:53:13;;;;;;;;;41.25;34.00;;;;;9.53;72.30;102801.13;4999539;28;45274;-71
2021/12/15 02:55:38;;;;;;;;;49.75;36.50;;;;;9.66;71.88;102818.59;5000380;28;45277;-71
2021/12/15 02:58:04;;;;;;;;;34.00;26.75;;;;;9.70;71.93;102828.56;5000212;28;45408;-71
2021/12/15 03:00:43;;;;;;;;;32.75;32.75;;;;;9.68;72.61;102829.28;5000574;28;45299;-71
2021/12/15 03:03:38;;;;;;;;;40.75;36.50;;;;;9.58;71.86;102815.53;4999733;28;45408;-71
2021/12/15 03:06:04;;;;;;;;;34.75;30.75;;;;;9.71;72.14;102835.66;4991035;28;45439;-71
2021/12/15 03:16:50;;;;;;;;;43.00;33.50;;;;;9.56;71.90;102809.22;4986479;28;46679;-71
2021/12/15 03:19:16;;;;;;;;;34.00;30.25;;;;;9.63;72.17;102826.34;4999683;28;45368;-70
2021/12/15 03:21:41;;;;;;;;;37.25;34.75;;;;;9.64;72.07;102820.28;4999987;28;45330;-71
2021/12/15 03:24:16;;;;;;;;;44.00;33.50;;;;;9.68;71.89;102827.53;4999640;28;45347;-71
2021/12/15 03:26:52;;;;;;;;;40.25;33.50;;;;;9.72;71.72;102832.22;4999565;28;45441;-71
2021/12/15 03:35:16;;;;;;;;;35.00;31.75;;;;;9.75;72.35;102836.75;4999480;28;45360;-71
2021/12/15 03:37:50;;;;;;;;;37.25;34.00;;;;;9.76;72.43;102841.22;4998497;28;45245;-71
2021/12/15 03:40:27;;;;;;;;;37.50;33.75;;;;;9.68;71.89;102830.19;4999891;28;45412;-71
2021/12/15 03:42:59;;;;;;;;;37.50;32.75;;;;;9.68;72.57;102831.91;4999406;28;45427;-71
2021/12/15 03:45:33;;;;;;;;;35.50;31.00;;;;;9.68;72.35;102837.19;4999709;28;45339;-71
2021/12/15 03:48:03;;;;;;;;;33.75;29.75;;;;;9.69;72.57;102844.28;4999205;28;45411;-70
2021/12/15 03:50:29;;;;;;;;;36.50;34.25;;;;;9.72;72.36;102848.06;4999720;28;45375;-71
2021/12/15 03:52:56;;;;;;;;;36.00;32.50;;;;;9.74;72.12;102854.31;4992177;28;45265;-71
2021/12/15 03:55:25;;;;;;;;;35.75;28.25;;;;;9.70;72.55;102840.84;4996582;28;45330;-71
2021/12/15 03:57:51;;;;;;;;;35.75;29.25;;;;;9.75;71.70;102848.22;4994393;28;45476;-71
2021/12/15 04:00:18;;;;;;;;;35.50;33.25;;;;;9.71;71.89;102833.00;4999734;28;45355;-71
2021/12/15 04:02:45;;;;;;;;;37.50;33.75;;;;;9.73;71.08;102848.97;5014217;28;45389;-71
2021/12/15 04:05:13;;;;;;;;;29.75;28.75;;;;;9.61;71.32;102821.00;4998137;28;47232;-71
2021/12/15 04:07:39;;;;;;;;;35.25;30.50;;;;;9.73;72.08;102843.69;4994048;28;47345;-71
2021/12/15 04:10:08;;;;;;;;;44.25;32.75;;;;;9.70;71.68;102843.50;4999558;28;45266;-71
2021/12/15 04:12:33;;;;;;;;;39.00;34.75;;;;;9.69;71.45;102833.72;4998946;28;45463;-71
2021/12/15 04:15:19;;;;;;;;;31.75;27.50;;;;;9.66;71.47;102833.53;4999223;28;45390;-70
2021/12/15 04:17:45;;;;;;;;;33.25;27.00;;;;;9.71;71.00;102843.56;4998662;28;45502;-71
2021/12/15 04:20:14;;;;;;;;;31.00;28.25;;;;;9.69;71.16;102831.09;4999420;28;45301;-71
2021/12/15 04:22:41;;;;;;;;;33.50;27.50;;;;;9.68;71.39;102835.47;4998357;28;45288;-71
2021/12/15 04:25:13;;;;;;;;;38.00;28.25;;;;;9.73;70.90;102838.41;4999256;28;45545;-71
2021/12/15 04:27:40;;;;;;;;;58.25;42.50;;;;;9.69;70.37;102826.75;4998199;28;45284;-71
2021/12/15 04:30:08;;;;;;;;;58.25;46.00;;;;;9.68;71.25;102829.28;5000896;28;45362;-71
2021/12/15 04:32:45;;;;;;;;;37.25;31.25;;;;;9.71;71.44;102840.94;4997115;28;45336;-71
2021/12/15 04:35:13;;;;;;;;;38.75;32.25;;;;;9.71;71.24;102838.28;5002670;28;45300;-71
2021/12/15 04:37:40;;;;;;;;;37.50;30.75;;;;;9.69;71.17;102839.00;5001127;28;45236;-71
2021/12/15 04:40:09;;;;;;;;;35.75;28.75;;;;;9.68;71.25;102831.91;5002542;28;45341;-71
2021/12/15 04:42:37;;;;;;;;;32.00;27.00;;;;;9.73;71.84;102846.31;5002040;28;45364;-71
2021/12/15 04:45:03;;;;;;;;;31.50;26.75;;;;;9.61;71.29;102825.38;5002605;28;45213;-71
2021/12/15 04:47:29;;;;;;;;;33.25;28.25;;;;;9.69;71.70;102846.94;4998925;28;48796;-71
2021/12/15 04:49:56;;;;;;;;;38.00;31.75;;;;;9.75;71.26;102852.63;5002604;28;45238;-71
2021/12/15 04:52:24;;;;;;;;;33.00;30.25;;;;;9.68;71.32;102840.75;5001737;28;45550;-71
2021/12/15 04:54:50;;;;;;;;;36.50;30.50;;;;;9.70;72.47;102852.31;5000587;28;47376;-70
2021/12/15 04:57:18;;;;;;;;;45.50;33.25;;;;;9.68;72.12;102843.38;5001674;28;45356;-71
2021/12/15 04:59:45;;;;;;;;;39.00;33.50;;;;;9.60;71.48;102834.09;5017488;28;45386;-71
2021/12/15 05:02:14;;;;;;;;;36.75;32.00;;;;;9.76;71.72;102857.06;5000506;28;45492;-70
2021/12/15 05:04:41;;;;;;;;;38.50;29.50;;;;;9.74;71.75;102858.69;5001750;28;45524;-70
2021/12/15 05:07:06;;;;;;;;;35.75;32.50;;;;;9.75;71.67;102860.53;4989096;28;45440;-70
2021/12/15 05:09:33;;;;;;;;;35.50;29.50;;;;;9.78;71.35;102863.34;5016981;28;45659;-70
2021/12/15 05:11:58;;;;;;;;;36.00;29.75;;;;;9.75;71.32;102852.63;5001885;28;45219;-70
2021/12/15 05:14:25;;;;;;;;;30.00;29.00;;;;;9.68;71.18;102851.31;5001986;28;45293;-70
2021/12/15 05:16:52;;;;;;;;;39.25;34.00;;;;;9.78;71.64;102871.28;5001572;28;45447;-71
2021/12/15 05:19:18;;;;;;;;;45.25;35.75;;;;;9.71;71.82;102864.69;5001862;28;45353;-70
2021/12/15 05:21:44;;;;;;;;;30.75;26.25;;;;;9.76;71.95;102867.63;5001678;28;45310;-70
2021/12/15 05:24:30;;;;;;;;;33.50;27.00;;;;;9.72;71.42;102862.97;5001423;28;45413;-70
2021/12/15 05:27:05;;;;;;;;;33.75;32.50;;;;;9.69;71.23;102866.34;5001470;28;45646;-69
2021/12/15 05:29:32;;;;;;;;;42.25;34.75;;;;;9.73;71.43;102872.72;5000508;28;44798;-69
2021/12/15 05:31:58;;;;;;;;;34.50;31.25;;;;;9.78;71.57;102879.22;5001483;28;45409;-69
2021/12/15 05:34:25;;;;;;;;;39.00;30.50;;;;;9.70;71.38;102865.53;5014532;28;45655;-70
2021/12/15 05:36:52;;;;;;;;;39.00;33.25;;;;;9.72;71.73;102868.25;5000665;28;46004;-70
2021/12/15 05:39:19;;;;;;;;;36.25;28.75;;;;;9.78;71.97;102880.13;5000918;28;45395;-70
2021/12/15 05:41:44;;;;;;;;;27.75;24.50;;;;;9.76;72.04;102875.53;5000573;28;45497;-70
2021/12/15 05:44:10;;;;;;;;;31.25;27.75;;;;;9.76;71.21;102881.75;5016556;28;45402;-70
2021/12/15 05:46:36;;;;;;;;;37.25;32.00;;;;;9.72;71.59;102871.81;5000837;28;45456;-70
2021/12/15 05:49:03;;;;;;;;;40.50;32.00;;;;;9.69;71.06;102870.69;5001283;28;45448;-70
2021/12/15 05:51:28;;;;;;;;;41.50;33.50;;;;;9.74;71.85;102890.38;5000998;28;45484;-70
2021/12/15 05:53:54;;;;;;;;;38.75;28.25;;;;;9.74;71.92;102901.84;5015851;28;46517;-70
2021/12/15 05:56:19;;;;;;;;;38.00;32.00;;;;;9.63;71.57;102877.44;5001392;28;46658;-69
2021/12/15 05:58:46;;;;;;;;;36.25;26.50;;;;;9.72;71.75;102892.00;5000480;28;45423;-71
2021/12/15 06:01:11;;;;;;;;;32.25;29.75;;;;;9.60;71.02;102869.31;5001643;28;45686;-70
2021/12/15 06:03:37;;;;;;;;;43.75;34.75;;;;;9.60;71.71;102876.31;4993236;28;45353;-70
2021/12/15 06:06:03;;;;;;;;;36.50;31.00;;;;;9.74;71.10;102900.94;5001189;28;47375;-70
2021/12/15 06:08:29;;;;;;;;;41.50;36.25;;;;;9.64;71.76;102875.72;4999724;28;45345;-69
2021/12/15 06:10:54;;;;;;;;;45.75;33.50;;;;;9.72;71.89;102892.00;5001365;28;45392;-70
2021/12/15 06:13:23;;;;;;;;;44.50;36.25;;;;;9.71;71.72;102901.66;5000288;28;45507;-70
2021/12/15 06:15:49;;;;;;;;;39.25;33.00;;;;;9.71;72.00;102912.22;5000906;28;45458;-70
2021/12/15 06:18:17;;;;;;;;;39.50;35.75;;;;;9.53;71.78;102877.69;4993077;28;45521;-70
2021/12/15 06:20:43;;;;;;;;;41.50;34.00;;;;;9.67;71.47;102910.22;4999652;28;45381;-70
2021/12/15 06:23:16;;;;;;;;;39.00;33.50;;;;;9.74;71.77;102922.06;4999816;28;45386;-70
2021/12/15 06:25:41;;;;;;;;;38.50;35.00;;;;;9.57;71.22;102894.63;4999457;28;47132;-69
2021/12/15 06:28:07;;;;;;;;;46.50;33.50;;;;;9.59;71.86;102899.19;4999933;28;45268;-70
2021/12/15 06:30:34;;;;;;;;;31.25;27.75;;;;;9.64;71.78;102905.66;4999653;28;45369;-70
2021/12/15 06:33:00;;;;;;;;;42.00;33.25;;;;;9.72;71.57;102918.41;5000132;28;45363;-69
2021/12/15 06:35:26;;;;;;;;;43.50;36.00;;;;;9.74;71.26;102916.78;4996652;28;45556;-70
2021/12/15 06:37:51;;;;;;;;;32.75;32.25;;;;;9.66;71.54;102908.38;5011677;28;45800;-70
2021/12/15 06:40:17;;;;;;;;;39.50;32.50;;;;;9.65;71.55;102911.84;5000562;28;45271;-70
2021/12/15 06:42:43;;;;;;;;;38.00;31.50;;;;;9.70;70.69;102915.69;4999888;28;45477;-70
2021/12/15 06:45:13;;;;;;;;;38.00;34.75;;;;;9.70;71.20;102918.34;5000589;28;45277;-70
2021/12/15 06:58:17;;;;;;;;;51.25;38.25;;;;;9.70;71.59;102928.91;4998892;28;45361;-70
2021/12/15 07:00:50;;;;;;;;;48.50;40.00;;;;;9.76;71.70;102944.22;5012344;28;45404;-70
2021/12/15 07:03:17;;;;;;;;;45.00;35.50;;;;;9.76;72.24;102950.41;4998836;28;45614;-70
2021/12/15 07:05:44;;;;;;;;;43.50;35.25;;;;;9.70;71.53;102935.91;5012013;28;47313;-70
2021/12/15 07:08:11;;;;;;;;;36.75;34.00;;;;;9.72;71.56;102943.13;4995842;28;45468;-69
2021/12/15 07:10:42;;;;;;;;;42.75;36.00;;;;;9.64;71.27;102929.44;4999730;28;45535;-70
2021/12/15 07:13:09;;;;;;;;;43.25;33.50;;;;;9.71;71.75;102943.00;4998899;28;45246;-70
2021/12/15 07:15:36;;;;;;;;;34.25;31.00;;;;;9.72;71.13;102950.09;4999374;28;45455;-70
2021/12/15 07:18:05;;;;;;;;;40.25;31.00;;;;;9.68;71.54;102942.81;4995925;28;45641;-71
2021/12/15 07:20:48;;;;;;;;;39.25;33.25;;;;;9.71;72.14;102946.56;4999594;28;45274;-70
2021/12/15 07:23:16;;;;;;;;;47.00;37.00;;;;;9.64;72.34;102949.66;5012793;28;46075;-70
2021/12/15 07:25:45;;;;;;;;;42.50;30.00;;;;;9.74;71.39;102959.94;4999017;28;46482;-71
2021/12/15 07:28:11;;;;;;;;;56.75;41.00;;;;;9.75;71.34;102967.06;4998804;28;44909;-70
2021/12/15 07:30:37;;;;;;;;;91.75;72.25;;;;;9.75;71.07;102967.06;4999333;28;44783;-70
2021/12/15 07:33:04;;;;;;;;;56.00;40.75;;;;;9.75;71.67;102972.38;4998545;28;45372;-70
2021/12/15 07:35:30;;;;;;;;;52.00;43.25;;;;;9.72;71.85;102963.31;4998870;28;48559;-70
2021/12/15 07:37:56;;;;;;;;;63.25;46.00;;;;;9.66;71.62;102958.56;4995247;28;46078;-71
2021/12/15 07:40:24;;;;;;;;;63.00;50.00;;;;;9.66;70.86;102960.28;4998742;28;45408;-71
2021/12/15 07:43:08;;;;;;;;;56.75;44.50;;;;;9.75;71.70;102982.94;4995477;28;46607;-71
2021/12/15 07:45:44;;;;;;;;;43.00;34.00;;;;;9.62;71.00;102960.09;4999067;28;45417;-71
2021/12/15 07:48:11;;;;;;;;;62.00;51.50;;;;;9.77;71.20;102990.94;4996379;28;45568;-70
2021/12/15 07:50:40;;;;;;;;;126.00;112.67;;;;;9.76;70.71;102990.03;4997705;28;45348;-71
2021/12/15 07:53:06;;;;;;;;;35.75;31.75;;;;;9.77;71.08;102986.56;4998109;28;45350;-71
2021/12/15 07:55:32;;;;;;;;;35.25;34.00;;;;;9.75;71.22;102987.31;4998722;28;46427;-71
2021/12/15 07:57:57;;;;;;;;;49.75;42.75;;;;;9.71;70.54;102975.59;4998139;28;45390;-71
2021/12/15 08:00:23;;;;;;;;;41.25;36.25;;;;;9.74;71.56;102991.63;4996753;28;45424;-71
2021/12/15 08:02:49;;;;;;;;;39.00;35.75;;;;;9.76;71.21;102986.47;4998361;28;45544;-71
2021/12/15 08:05:15;;;;;;;;;31.00;25.75;;;;;9.69;71.53;102973.69;4998517;28;45464;-70
2021/12/15 08:07:40;;;;;;;;;41.00;34.75;;;;;9.82;71.23;102994.78;4997723;28;45469;-71
2021/12/15 08:10:09;;;;;;;;;34.25;27.75;;;;;9.80;71.15;102994.69;4999089;28;45458;-71
2021/12/15 08:12:35;;;;;;;;;37.25;34.00;;;;;9.78;71.44;102987.50;4997894;28;45273;-71
2021/12/15 08:15:01;;;;;;;;;40.25;32.75;;;;;9.74;71.31;102982.81;4997088;28;46340;-71
2021/12/15 08:17:26;;;;;;;;;50.25;39.25;;;;;9.71;71.06;102987.91;4998000;28;45309;-72
2021/12/15 08:19:51;;;;;;;;;24.50;24.25;;;;;9.79;70.63;103008.69;4998647;28;45347;-71
2021/12/15 08:22:17;;;;;;;;;23.75;19.00;;;;;9.71;71.81;102982.63;4997651;28;45502;-72
2021/12/15 08:24:42;;;;;;;;;38.75;33.25;;;;;9.83;71.34;103005.44;4998140;28;46339;-71
2021/12/15 08:27:08;;;;;;;;;32.50;26.75;;;;;9.62;70.82;102965.38;4994930;28;45591;-71
2021/12/15 08:29:34;;;;;;;;;35.50;29.25;;;;;9.84;71.00;103003.72;4997593;28;45478;-70
2021/12/15 08:31:59;;;;;;;;;23.00;20.50;;;;;9.81;71.19;103000.88;4991751;28;45920;-71
2021/12/15 08:34:25;;;;;;;;;26.25;24.00;;;;;9.85;71.08;102992.31;4996669;28;45542;-71
2021/12/15 08:36:52;;;;;;;;;35.75;30.75;;;;;9.84;71.45;102991.41;4997093;28;45333;-71
2021/12/15 08:39:18;;;;;;;;;35.50;31.25;;;;;9.79;71.29;102995.50;4997753;28;45381;-70
2021/12/15 08:41:44;;;;;;;;;51.00;41.25;;;;;9.80;71.01;102985.84;4997633;28;45261;-71
2021/12/15 08:44:10;;;;;;;;;41.75;32.75;;;;;9.85;71.04;102989.69;4997745;28;45340;-71
2021/12/15 08:46:39;;;;;;;;;67.75;54.50;;;;;9.91;71.42;103008.53;4997865;28;45437;-71
2021/12/15 08:49:07;;;;;;;;;109.67;94.33;;;;;9.96;71.23;103003.56;4998240;28;45508;-70
2021/12/15 08:51:34;;;;;;;;;54.25;41.00;;;;;9.88;71.48;102987.22;4998029;28;45418;-70
2021/12/15 08:54:02;;;;;;;;;35.00;32.75;;;;;9.93;70.32;103004.28;4996679;28;45579;-69
2021/12/15 08:56:28;;;;;;;;;49.00;41.00;;;;;9.91;71.51;103005.91;4997806;28;45341;-71
2021/12/15 08:58:54;;;;;;;;;33.00;26.75;;;;;9.91;71.04;102997.97;4997892;28;45427;-71
2021/12/15 09:01:20;;;;;;;;;31.75;29.75;;;;;10.03;71.28;103022.53;4998481;28;45258;-70
2021/12/15 09:03:46;;;;;;;;;34.50;31.75;;;;;9.98;70.26;103013.41;4996216;28;48316;-70
2021/12/15 09:06:12;;;;;;;;;29.50;29.50;;;;;9.99;70.29;103006.41;4998282;28;45334;-70
2021/12/15 09:08:39;;;;;;;;;29.50;25.50;;;;;10.00;71.44;102997.66;4997218;28;45486;-70
2021/12/15 09:11:09;;;;;;;;;39.00;32.25;;;;;10.07;71.25;103005.13;4998224;28;45244;-70
2021/12/15 09:13:35;;;;;;;;;39.00;29.50;;;;;9.92;71.18;102977.78;4997123;28;45650;-70
2021/12/15 09:16:06;;;;;;;;;29.50;26.25;;;;;10.07;71.18;103003.41;4994202;28;45513;-70
2021/12/15 09:18:33;;;;;;;;;34.25;29.75;;;;;10.19;70.82;103024.38;4999148;28;45447;-71
2021/12/15 09:21:00;;;;;;;;;23.75;21.00;;;;;10.14;69.72;103015.28;5016589;28;46883;-70
2021/12/15 09:23:27;;;;;;;;;20.25;19.00;;;;;10.08;69.38;103002.59;5000253;28;46148;-71
2021/12/15 09:25:53;;;;;;;;;21.25;18.50;;;;;10.19;70.39;103019.09;5000109;28;45371;-71
2021/12/15 09:28:19;;;;;;;;;36.00;33.00;;;;;10.22;70.35;103015.72;4996319;28;45369;-71
2021/12/15 09:30:47;;;;;;;;;29.50;24.75;;;;;10.18;70.17;103008.44;4999807;28;47125;-70
2021/12/15 09:33:18;;;;;;;;;17.75;17.75;;;;;10.28;69.87;103025.00;5000307;28;45487;-70
2021/12/15 09:35:44;;;;;;;;;39.50;36.25;;;;;10.24;69.93;103014.09;5000535;28;45515;-71
2021/12/15 09:38:09;;;;;;;;;20.75;16.00;;;;;10.36;69.50;103024.53;4999905;28;45464;-70
2021/12/15 09:40:35;;;;;;;;;19.50;17.50;;;;;10.39;69.63;103028.31;5011473;28;46920;-70
2021/12/15 09:43:03;;;;;;;;;20.75;15.75;;;;;10.38;69.40;103029.09;4999835;28;45403;-70
2021/12/15 09:56:37;;;;;;;;;21.75;20.00;;;;;10.58;69.88;103024.13;4997177;28;45258;-71
2021/12/15 10:12:32;;;;;;;;;15.25;15.00;;;;;10.69;68.56;103045.09;4999745;28;45340;-71
2021/12/15 10:18:23;;;;;;;;;17.00;17.00;;;;;10.70;70.13;103020.47;4999878;28;45439;-71
2021/12/15 10:20:48;;;;;;;;;20.50;18.50;;;;;10.84;69.69;103038.88;5000689;28;45406;-71
2021/12/15 10:23:22;;;;;;;;;20.75;19.25;;;;;10.76;69.46;103012.00;4999718;28;45504;-71
2021/12/15 10:25:49;;;;;;;;;17.25;14.50;;;;;10.83;68.33;103018.53;4999829;28;45400;-71
2021/12/15 10:28:16;;;;;;;;;22.25;20.25;;;;;10.95;67.97;103044.00;4997523;28;45392;-71
2021/12/15 10:31:11;;;;;;;;;21.00;18.00;;;;;10.85;68.92;103035.44;5016118;28;45380;-71
2021/12/15 10:33:43;;;;;;;;;18.00;15.25;;;;;10.89;68.90;103030.41;4999406;28;45242;-71
2021/12/15 10:36:18;;;;;;;;;17.00;13.75;;;;;10.99;68.35;103047.75;5015842;28;47088;-71
2021/12/15 10:38:47;;;;;;;;;18.75;17.50;;;;;10.82;67.72;103004.41;4994655;28;45449;-71
2021/12/15 10:41:35;;;;;;;;;14.25;13.00;;;;;10.91;68.20;103039.34;5000904;28;45330;-71
2021/12/15 10:44:03;;;;;;;;;21.00;16.75;;;;;10.79;68.32;103024.50;5000360;28;45542;-71
2021/12/15 10:46:41;;;;;;;;;14.50;14.25;;;;;10.88;68.47;103036.53;5015217;28;45282;-71
2021/12/15 10:49:15;;;;;;;;;14.25;12.50;;;;;10.88;68.89;103031.22;4999881;28;45552;-69
2021/12/15 10:52:08;;;;;;;;;13.75;13.75;;;;;10.93;68.95;103027.13;4999560;28;45356;-69
2021/12/15 10:54:44;;;;;;;;;15.75;14.50;;;;;11.03;67.83;103030.28;4994782;28;47373;-69
2021/12/15 10:57:14;;;;;;;;;14.75;14.75;;;;;11.06;68.21;103033.13;4999109;28;45682;-69
2021/12/15 10:59:42;;;;;;;;;16.50;14.00;;;;;10.97;68.46;103007.03;4998484;28;45899;-69
2021/12/15 11:02:12;;;;;;;;;20.00;13.75;;;;;11.08;68.21;103027.09;4998964;28;45343;-69
2021/12/15 11:04:38;;;;;;;;;14.50;12.00;;;;;11.14;68.21;103037.13;4999646;28;45389;-69
2021/12/15 11:07:29;;;;;;;;;12.25;12.25;;;;;11.02;68.49;103012.59;4997982;28;45605;-68
2021/12/15 11:10:13;;;;;;;;;14.00;14.00;;;;;11.11;67.57;103029.91;4999883;28;45365;-69
2021/12/15 11:13:09;;;;;;;;;17.00;14.00;;;;;11.15;68.13;103031.03;4999082;28;45300;-69
2021/12/15 11:15:50;;;;;;;;;11.75;11.00;;;;;11.15;68.13;103031.94;4988101;28;46598;-69
2021/12/15 11:18:17;;;;;;;;;20.25;15.00;;;;;11.13;67.22;103028.28;4999214;28;46212;-69
2021/12/15 11:21:06;;;;;;;;;17.00;15.50;;;;;11.10;68.31;103027.19;4999001;28;45220;-69
2021/12/15 11:23:32;;;;;;;;;16.25;15.00;;;;;11.09;67.23;103028.94;4999260;28;45329;-69
2021/12/15 11:26:00;;;;;;;;;15.25;15.25;;;;;11.10;67.67;103020.16;4999869;28;45587;-69
2021/12/15 11:28:28;;;;;;;;;19.25;18.25;;;;;11.09;67.00;103015.72;4993714;28;47906;-69
2021/12/15 11:31:04;;;;;;;;;19.25;16.00;;;;;11.02;68.39;103008.22;4998801;28;45483;-68
2021/12/15 11:33:33;;;;;;;;;14.75;14.25;;;;;11.11;68.07;103007.84;4995565;28;45571;-69
2021/12/15 11:36:12;;;;;;;;;16.75;15.00;;;;;11.13;68.33;103004.47;4999888;28;45336;-68
2021/12/15 11:38:43;;;;;;;;;14.75;12.50;;;;;11.04;66.88;102990.69;4995949;28;45463;-71
2021/12/15 11:41:16;;;;;;;;;20.50;17.00;;;;;11.12;68.50;103002.66;4986513;28;45363;-70
2021/12/15 11:43:51;;;;;;;;;18.50;15.25;;;;;11.11;68.27;103013.13;4992146;28;45828;-68
2021/12/15 11:46:25;;;;;;;;;16.00;14.00;;;;;11.09;67.88;103009.47;4999622;28;45388;-68
2021/12/15 11:49:02;;;;;;;;;14.00;13.00;;;;;11.10;67.76;103000.72;4998568;28;45257;-68
2021/12/15 11:51:29;;;;;;;;;16.00;13.50;;;;;11.12;66.58;103007.94;5014894;28;45344;-68
2021/12/15 11:53:55;;;;;;;;;14.75;13.75;;;;;11.07;66.68;103003.19;4998824;28;45436;-68
2021/12/15 11:56:30;;;;;;;;;17.75;15.50;;;;;11.14;67.48;103002.72;4999416;28;45921;-68
2021/12/15 11:59:14;;;;;;;;;15.00;15.00;;;;;11.07;68.78;102982.94;4999085;28;45519;-68
2021/12/15 12:01:57;;;;;;;;;17.00;15.00;;;;;11.18;67.36;103003.00;5013965;28;45310;-68
2021/12/15 12:04:35;;;;;;;;;13.00;13.00;;;;;11.19;67.38;102993.31;4997487;28;45438;-69
2021/12/15 12:07:33;;;;;;;;;14.25;13.50;;;;;11.19;67.79;102994.22;4998491;28;45444;-68
2021/12/15 12:10:18;;;;;;;;;19.25;13.50;;;;;11.20;66.41;102993.41;4996120;28;46211;-68
2021/12/15 12:13:02;;;;;;;;;14.25;12.00;;;;;11.18;67.34;102983.56;4998571;28;45473;-68
2021/12/15 12:15:29;;;;;;;;;12.25;12.25;;;;;11.23;66.80;102981.16;4994653;28;45295;-68
2021/12/15 12:18:00;;;;;;;;;15.50;13.50;;;;;11.32;66.57;102997.56;4998203;28;45520;-68
2021/12/15 12:20:32;;;;;;;;;15.25;12.25;;;;;11.13;66.76;102959.47;4999249;28;46016;-67
2021/12/15 12:23:00;;;;;;;;;12.00;9.75;;;;;11.26;68.57;102969.03;4998069;28;45386;-68
2021/12/15 12:25:28;;;;;;;;;11.75;11.25;;;;;11.36;66.55;102995.16;4999279;28;45335;-68
2021/12/15 12:27:56;;;;;;;;;15.00;12.75;;;;;11.34;66.48;102987.97;4998346;28;45439;-68
2021/12/15 12:30:26;;;;;;;;;15.00;13.50;;;;;11.34;66.43;102987.97;4998988;28;45317;-68